This is the latest recevied weather packets stored in our database for station/object K4DFD-13. If no packets are shown the sender has not sent any weather packets the latest 1 day(s).
| Time | Temp. | Humidity | Pressure | Rain* | Wind** | Luminosity | Snow |
|---|---|---|---|---|---|---|---|
| 1778011590 | 23.33° C | 37% | 1013.5 hPa | 0 mm | 2.68 m/s, 184° | - | - |
| 1778011290 | 23.33° C | 36% | 1013.5 hPa | 0 mm | 3.58 m/s, 183° | - | - |
| 1778010990 | 23.33° C | 36% | 1013.6 hPa | 0 mm | 2.68 m/s, 192° | - | - |
| 1778010689 | 23.33° C | 35% | 1013.8 hPa | 0 mm | 3.13 m/s, 187° | - | - |
| 1778010389 | 23.89° C | 35% | 1013.7 hPa | 0 mm | 2.68 m/s, 194° | - | - |
| 1778010089 | 23.33° C | 37% | 1013.4 hPa | 0 mm | 2.24 m/s, 182° | - | - |
| 1778009795 | 23.33° C | 37% | 1013.7 hPa | 0 mm | 1.79 m/s, 198° | - | - |
| 1778009493 | 23.33° C | 37% | 1013.8 hPa | 0 mm | 3.13 m/s, 212° | - | - |
| 1778009208 | 23.33° C | 37% | 1013.9 hPa | 0 mm | 1.79 m/s, 192° | - | - |
| 1778008907 | 23.89° C | 36% | 1013.9 hPa | 0 mm | 3.13 m/s, 182° | - | - |
| 1778008594 | 23.89° C | 37% | 1013.8 hPa | 0 mm | 2.24 m/s, 177° | - | - |
| 1778008286 | 23.89° C | 38% | 1013.8 hPa | 0 mm | 1.34 m/s, 168° | - | - |
| 1778007996 | 23.89° C | 39% | 1013.8 hPa | 0 mm | 1.79 m/s, 189° | - | - |
| 1778007706 | 23.33° C | 39% | 1013.9 hPa | 0 mm | 3.58 m/s, 217° | - | - |
| 1778007385 | 23.33° C | 40% | 1014.1 hPa | 0 mm | 0.89 m/s, 157° | - | - |
| 1778007085 | 23.89° C | 41% | 1014.3 hPa | 0 mm | 4.02 m/s, 195° | - | - |
| 1778006805 | 23.89° C | 41% | 1014.1 hPa | 0 mm | 4.02 m/s, 207° | - | - |
| 1778006504 | 23.89° C | 43% | 1014.1 hPa | 0 mm | 1.79 m/s, 201° | - | - |
| 1778006204 | 23.89° C | 44% | 1014.3 hPa | 0 mm | 2.68 m/s, 200° | - | - |
| 1778005884 | 23.89° C | 42% | 1014.5 hPa | 0 mm | 4.92 m/s, 215° | - | - |
| 1778005603 | 24.44° C | 43% | 1014.3 hPa | 0 mm | 1.34 m/s, 172° | - | - |
| 1778005283 | 24.44° C | 40% | 1014.3 hPa | 0 mm | 2.24 m/s, 187° | - | - |
| 1778004982 | 23.89° C | 38% | 1014.4 hPa | 0 mm | 0.89 m/s, 143° | - | - |
| 1778004682 | 23.89° C | 36% | 1014.4 hPa | 0 mm | 2.68 m/s, 209° | - | - |
| 1778004382 | 23.89° C | 38% | 1014.6 hPa | 0 mm | 2.68 m/s, 196° | - | - |
* Rain latest hour (hover to see other rain measurements)
** Current wind speed in m/s (hover to see current wind gust speed)